This is the latest recevied weather packets stored in our database for station/object OK1KZE-6. If no packets are shown the sender has not sent any weather packets the latest 10 day(s).
| Time | Temp. | Humidity | Pressure | Rain* | Wind** | Luminosity | Snow |
|---|---|---|---|---|---|---|---|
| 1777669808 | 16.67° C | 43% | 1027.6 hPa | - | - | - | - |
| 1777669508 | 16.67° C | 42% | 1027.6 hPa | - | - | - | - |
| 1777669207 | 16.67° C | 42% | 1027.5 hPa | - | - | - | - |
| 1777668908 | 16.11° C | 44% | 1027.5 hPa | - | - | - | - |
| 1777668607 | 15.56° C | 46% | 1027.5 hPa | - | - | - | - |
| 1777668309 | 16.67° C | 43% | 1027.4 hPa | - | - | - | - |
| 1777668007 | 16.67° C | 41% | 1027.8 hPa | - | - | - | - |
| 1777667708 | 16.67° C | 42% | 1027.8 hPa | - | - | - | - |
| 1777667407 | 16.11° C | 45% | 1027.5 hPa | - | - | - | - |
| 1777666807 | 17.22° C | 40% | 1027.6 hPa | - | - | - | - |
| 1777666508 | 17.22° C | 41% | 1027.5 hPa | - | - | - | - |
| 1777666208 | 16.67° C | 42% | 1027.7 hPa | - | - | - | - |
| 1777665908 | 17.22° C | 42% | 1027.6 hPa | - | - | - | - |
| 1777665608 | 17.22° C | 42% | 1027.6 hPa | - | - | - | - |
| 1777665307 | 17.22° C | 41% | 1027.6 hPa | - | - | - | - |
| 1777665008 | 17.22° C | 42% | 1027.7 hPa | - | - | - | - |
| 1777664708 | 17.22° C | 42% | 1027.5 hPa | - | - | - | - |
| 1777664409 | 17.22° C | 41% | 1027.8 hPa | - | - | - | - |
| 1777664107 | 17.78° C | 41% | 1027.8 hPa | - | - | - | - |
| 1777663808 | 17.22° C | 42% | 1027.9 hPa | - | - | - | - |
| 1777663508 | 17.22° C | 42% | 1027.6 hPa | - | - | - | - |
| 1777663207 | 17.22° C | 43% | 1027.7 hPa | - | - | - | - |
| 1777662908 | 17.22° C | 42% | 1027.8 hPa | - | - | - | - |
| 1777662609 | 17.78° C | 41% | 1027.9 hPa | - | - | - | - |
| 1777662308 | 17.78° C | 41% | 1027.6 hPa | - | - | - | - |
* Rain since midnight (hover to see other rain measurements)
** Current wind speed in m/s (hover to see current wind gust speed)